Time;durP1;ratioP1;P1;durP2;ratioP2;P2;SDS_P1;SDS_P2;PMS_P1;PMS_P2;Temp;Humidity;BMP_temperature;BMP_pressure;BME280_temperature;BME280_humidity;BME280_pressure;Samples;Min_cycle;Max_cycle;Signal;HPM_P1;HPM_P2
2023/10/09 00:01:20;;;;;;;10.20;7.50;;;20.60;99.90;;;;;;5072742;28;20024;-71
2023/10/09 00:03:55;;;;;;;10.30;7.22;;;20.60;99.90;;;;;;5091190;28;20085;-72
2023/10/09 00:06:36;;;;;;;8.70;7.03;;;20.60;99.90;;;;;;5074698;28;20043;-72
2023/10/09 00:09:17;;;;;;;13.55;7.45;;;20.60;99.90;;;;;;5072576;28;20035;-69
2023/10/09 00:11:44;;;;;;;10.38;7.32;;;20.60;99.90;;;;;;5091124;28;20028;-71
2023/10/09 00:14:15;;;;;;;13.38;7.57;;;20.60;99.90;;;;;;5106360;28;20020;-71
2023/10/09 00:16:48;;;;;;;10.43;7.15;;;20.60;99.90;;;;;;5072959;28;20079;-72
2023/10/09 00:19:26;;;;;;;10.63;7.50;;;20.60;99.90;;;;;;5090996;28;20043;-71
2023/10/09 00:21:55;;;;;;;11.07;7.10;;;20.50;99.90;;;;;;5091056;28;20012;-71
2023/10/09 00:24:24;;;;;;;10.88;7.28;;;20.60;99.90;;;;;;5090626;28;20036;-71
2023/10/09 00:27:01;;;;;;;10.20;7.05;;;20.60;99.90;;;;;;5090621;28;20073;-72
2023/10/09 00:29:34;;;;;;;9.38;6.65;;;20.60;99.90;;;;;;5090978;28;20028;-72
2023/10/09 00:32:05;;;;;;;10.52;6.93;;;20.60;99.90;;;;;;5072371;28;20055;-72
2023/10/09 00:34:39;;;;;;;10.25;7.55;;;20.60;99.90;;;;;;5091014;28;20153;-72
2023/10/09 00:37:23;;;;;;;10.60;7.43;;;20.50;99.90;;;;;;5090437;28;20067;-71
2023/10/09 00:39:57;;;;;;;10.30;7.35;;;20.50;99.90;;;;;;5072250;28;20082;-72
2023/10/09 00:42:29;;;;;;;9.60;6.78;;;20.50;99.90;;;;;;5090219;28;20016;-71
2023/10/09 00:44:56;;;;;;;11.88;8.00;;;20.50;99.90;;;;;;5090634;28;20062;-72
2023/10/09 00:47:33;;;;;;;;;;;20.40;99.90;;;;;;5092038;28;20077;-72
2023/10/09 00:52:44;;;;;;;11.65;7.28;;;20.40;99.90;;;;;;5094454;28;20473;-70
2023/10/09 00:55:20;;;;;;;10.57;7.28;;;20.40;99.90;;;;;;5094115;28;20032;-70
2023/10/09 00:57:57;;;;;;;10.18;7.45;;;20.40;99.90;;;;;;5094146;28;20060;-70
2023/10/09 01:00:45;;;;;;;10.98;7.38;;;20.40;99.90;;;;;;5094313;28;20030;-71
2023/10/09 01:03:20;;;;;;;11.32;7.47;;;20.30;99.90;;;;;;5093983;28;20028;-73
2023/10/09 01:11:10;;;;;;;9.57;7.22;;;20.30;99.90;;;;;;5094157;28;20042;-71
2023/10/09 01:16:16;;;;;;;13.68;7.57;;;20.30;99.90;;;;;;5093999;28;20045;-72
2023/10/09 01:18:49;;;;;;;11.18;6.50;;;20.20;99.90;;;;;;5094272;28;20118;-71
2023/10/09 01:21:26;;;;;;;11.45;7.88;;;20.20;99.90;;;;;;5094042;28;20474;-71
2023/10/09 01:26:46;;;;;;;11.23;6.93;;;20.30;99.90;;;;;;5093596;28;20539;-71
2023/10/09 01:29:19;;;;;;;9.35;6.93;;;20.30;99.90;;;;;;5093494;28;20028;-71
2023/10/09 01:35:14;;;;;;;11.57;7.18;;;20.30;99.90;;;;;;5093642;28;20107;-70
2023/10/09 01:37:22;;;;;;;8.98;6.85;;;20.30;99.90;;;;;;5087546;28;20028;-70
2023/10/09 01:39:50;;;;;;;11.20;7.32;;;20.40;99.90;;;;;;5093937;28;20090;-70
2023/10/09 01:44:58;;;;;;;10.45;7.35;;;20.40;99.90;;;;;;5093491;28;20020;-70
2023/10/09 01:47:31;;;;;;;11.48;7.30;;;20.30;99.90;;;;;;5093236;28;20095;-70
2023/10/09 01:49:57;;;;;;;10.77;7.15;;;20.20;99.90;;;;;;5075058;28;20101;-71
2023/10/09 01:52:23;;;;;;;14.23;8.00;;;20.20;99.90;;;;;;5093130;28;20044;-71
2023/10/09 01:54:53;;;;;;;11.05;7.20;;;20.10;99.90;;;;;;5093338;28;20024;-71
2023/10/09 01:57:23;;;;;;;10.85;6.93;;;20.20;99.90;;;;;;5092732;28;20024;-72
2023/10/09 01:59:53;;;;;;;9.48;7.45;;;20.10;99.90;;;;;;5093178;28;20047;-71
2023/10/09 02:05:25;;;;;;;12.70;7.55;;;20.10;99.90;;;;;;5093030;28;20032;-72
2023/10/09 02:07:54;;;;;;;11.10;7.65;;;20.10;99.90;;;;;;5092466;28;20039;-71
2023/10/09 02:13:06;;;;;;;13.27;7.30;;;20.00;99.90;;;;;;5092845;28;20040;-72
2023/10/09 02:15:51;;;;;;;11.23;7.47;;;20.00;99.90;;;;;;5093047;28;20024;-71
2023/10/09 02:21:00;;;;;;;11.73;7.35;;;19.90;99.90;;;;;;5092633;28;20028;-70
2023/10/09 02:23:46;;;;;;;11.32;7.85;;;19.90;99.90;;;;;;5092825;28;20051;-71
2023/10/09 02:26:26;;;;;;;11.20;6.55;;;19.90;99.90;;;;;;5092596;28;20044;-72
2023/10/09 02:28:58;;;;;;;11.88;7.50;;;19.90;99.90;;;;;;5092035;28;20352;-71
2023/10/09 02:31:40;;;;;;;10.40;7.60;;;19.90;99.90;;;;;;5092354;28;20040;-71
2023/10/09 02:34:15;;;;;;;13.07;7.75;;;19.90;99.90;;;;;;5092693;28;20016;-72
2023/10/09 02:36:42;;;;;;;9.90;7.53;;;19.90;99.90;;;;;;5092519;28;20024;-71
2023/10/09 02:39:36;;;;;;;17.05;7.57;;;20.00;99.90;;;;;;5073912;28;20055;-71
2023/10/09 02:42:01;;;;;;;10.25;7.43;;;20.00;99.90;;;;;;5091796;28;20032;-71
2023/10/09 02:44:39;;;;;;;12.07;7.28;;;20.00;99.90;;;;;;5092501;28;20023;-71
2023/10/09 02:47:11;;;;;;;11.07;7.70;;;20.00;99.90;;;;;;5092262;28;20024;-71
2023/10/09 02:49:39;;;;;;;11.52;7.35;;;20.00;99.90;;;;;;5092269;28;20106;-70
2023/10/09 02:52:10;;;;;;;9.23;6.95;;;20.00;99.90;;;;;;5091781;28;20028;-70
2023/10/09 02:54:41;;;;;;;10.88;7.60;;;20.00;99.90;;;;;;5091831;28;20101;-72
2023/10/09 02:57:08;;;;;;;10.35;7.13;;;20.00;99.90;;;;;;5091606;28;20064;-70
2023/10/09 02:59:34;;;;;;;13.27;7.50;;;20.10;99.90;;;;;;5091649;28;20048;-71
2023/10/09 03:02:01;;;;;;;12.40;7.22;;;20.20;99.90;;;;;;5092960;28;20095;-71
2023/10/09 03:04:31;;;;;;;12.90;7.35;;;20.30;99.90;;;;;;5092904;28;20116;-71
2023/10/09 03:07:01;;;;;;;11.70;6.85;;;20.30;99.90;;;;;;5092755;28;20081;-71
2023/10/09 03:09:27;;;;;;;14.38;7.40;;;20.40;99.90;;;;;;5093043;28;20020;-71
2023/10/09 03:12:02;;;;;;;11.70;7.38;;;20.40;99.90;;;;;;5092249;28;20032;-71
2023/10/09 03:14:35;;;;;;;10.52;7.60;;;20.40;99.90;;;;;;5093047;28;20111;-72
2023/10/09 03:17:01;;;;;;;11.32;6.88;;;20.40;99.90;;;;;;5074473;28;20066;-72
2023/10/09 03:19:29;;;;;;;9.32;7.60;;;20.40;99.90;;;;;;5092507;28;20145;-71
2023/10/09 03:21:58;;;;;;;12.05;7.53;;;20.40;99.90;;;;;;5074340;28;20031;-71
2023/10/09 03:24:27;;;;;;;10.27;7.55;;;20.30;99.90;;;;;;5093620;28;20036;-71
2023/10/09 03:26:57;;;;;;;11.07;7.25;;;20.20;99.90;;;;;;5093180;28;20028;-71
2023/10/09 03:29:24;;;;;;;10.25;7.05;;;20.10;99.90;;;;;;5093588;28;20024;-71
2023/10/09 03:31:51;;;;;;;12.15;7.97;;;20.00;99.90;;;;;;5093630;28;20039;-70
2023/10/09 03:34:18;;;;;;;13.63;7.78;;;19.90;99.90;;;;;;5093541;28;20103;-72
2023/10/09 03:36:48;;;;;;;;;;;19.90;99.90;;;;;;5075394;28;20097;-72
2023/10/09 03:39:48;;;;;;;10.35;6.85;;;19.90;99.90;;;;;;5093077;28;19966;-71
2023/10/09 03:42:11;;;;;;;9.90;7.40;;;19.90;99.90;;;;;;5090743;28;20396;-71
2023/10/09 03:44:42;;;;;;;12.40;7.45;;;20.00;99.90;;;;;;5075025;28;20361;-72
2023/10/09 03:47:11;;;;;;;10.85;7.25;;;20.00;99.90;;;;;;5093303;28;20089;-71
2023/10/09 03:49:39;;;;;;;12.05;7.45;;;20.10;99.90;;;;;;5092239;28;20364;-71
2023/10/09 03:52:09;;;;;;;12.40;7.10;;;20.20;99.90;;;;;;5092908;28;20031;-71
2023/10/09 03:54:35;;;;;;;8.73;6.68;;;20.30;99.90;;;;;;5074867;28;20016;-70
2023/10/09 03:57:02;;;;;;;12.75;7.32;;;20.30;99.90;;;;;;5092797;28;20039;-71
2023/10/09 03:59:30;;;;;;;10.70;6.95;;;20.30;99.90;;;;;;5093046;28;20444;-72
2023/10/09 04:01:58;;;;;;;10.18;6.50;;;20.30;99.90;;;;;;5093551;28;20016;-71
2023/10/09 04:04:25;;;;;;;10.68;6.82;;;20.30;99.90;;;;;;5092804;28;20031;-72
2023/10/09 04:06:54;;;;;;;10.55;6.47;;;20.30;99.90;;;;;;5092986;28;20028;-72
2023/10/09 04:11:50;;;;;;;9.25;6.22;;;20.40;99.90;;;;;;5092545;28;20123;-72
2023/10/09 04:14:26;;;;;;;11.88;7.03;;;20.40;99.90;;;;;;5074997;28;20042;-71
2023/10/09 04:16:52;;;;;;;11.02;7.40;;;20.40;99.90;;;;;;5092655;28;20039;-71
2023/10/09 04:19:24;;;;;;;10.75;6.82;;;20.50;99.90;;;;;;5093236;28;20380;-71
2023/10/09 04:21:55;;;;;;;9.82;6.65;;;20.40;99.90;;;;;;5093623;28;20046;-72
2023/10/09 04:24:24;;;;;;;17.70;7.25;;;20.40;99.90;;;;;;5097455;28;20170;-72
2023/10/09 04:26:57;;;;;;;12.00;7.53;;;20.30;99.90;;;;;;5097155;28;20123;-72
2023/10/09 04:29:26;;;;;;;17.65;7.50;;;20.20;99.90;;;;;;5097976;28;20434;-71
2023/10/09 04:31:56;;;;;;;14.60;7.60;;;20.20;99.90;;;;;;5097712;28;20043;-71
2023/10/09 04:34:34;;;;;;;12.10;7.97;;;20.20;99.90;;;;;;5097819;28;20031;-71
2023/10/09 04:37:01;;;;;;;11.23;7.18;;;20.10;99.90;;;;;;5097318;28;20031;-72
2023/10/09 04:47:38;;;;;;;8.85;6.72;;;20.00;99.90;;;;;;5097108;28;20030;-71
2023/10/09 04:53:13;;;;;;;11.65;7.40;;;20.10;99.90;;;;;;5080531;28;20036;-72
2023/10/09 04:55:44;;;;;;;11.50;7.22;;;20.20;99.90;;;;;;5078556;28;20122;-71
2023/10/09 04:58:23;;;;;;;11.43;7.38;;;20.20;99.90;;;;;;5078250;28;20028;-72
2023/10/09 05:03:30;;;;;;;11.27;7.15;;;20.20;99.90;;;;;;5096464;28;20044;-72
2023/10/09 05:06:19;;;;;;;15.25;7.45;;;20.20;99.90;;;;;;5078227;28;20447;-72
2023/10/09 05:08:46;;;;;;;10.77;6.90;;;20.20;99.90;;;;;;5095359;28;20111;-71
2023/10/09 05:11:34;;;;;;;10.90;7.50;;;20.20;99.90;;;;;;5095711;28;20122;-71
2023/10/09 05:14:12;;;;;;;12.75;6.90;;;20.20;99.90;;;;;;5077671;28;20123;-71
2023/10/09 05:16:54;;;;;;;9.30;6.88;;;20.20;99.90;;;;;;5096183;28;20058;-71
2023/10/09 05:19:41;;;;;;;10.43;7.13;;;20.20;99.90;;;;;;5096251;28;20039;-71
2023/10/09 05:22:57;;;;;;;12.73;6.63;;;20.20;99.90;;;;;;5096155;28;20499;-71
2023/10/09 05:24:58;;;;;;;14.43;6.93;;;20.30;99.90;;;;;;5088275;28;20036;-71
2023/10/09 05:27:45;;;;;;;10.57;6.90;;;20.40;99.90;;;;;;5077137;28;20027;-72
2023/10/09 05:30:33;;;;;;;12.13;7.38;;;20.40;99.90;;;;;;5095078;28;20063;-71
2023/10/09 05:33:27;;;;;;;10.05;6.97;;;20.40;99.90;;;;;;5095059;28;20099;-71
2023/10/09 05:36:05;;;;;;;12.70;7.28;;;20.40;99.90;;;;;;5095083;28;20118;-71
2023/10/09 05:38:35;;;;;;;14.38;8.02;;;20.50;99.90;;;;;;5077002;28;20069;-72
2023/10/09 05:41:31;;;;;;;15.65;7.45;;;20.80;99.90;;;;;;5095538;28;20020;-72
2023/10/09 05:46:48;;;;;;;10.95;6.40;;;21.50;99.90;;;;;;5094750;28;20450;-71
2023/10/09 05:49:24;;;;;;;12.05;6.60;;;22.20;99.90;;;;;;5076162;28;20440;-71
2023/10/09 05:51:53;;;;;;;15.23;6.85;;;22.50;99.90;;;;;;5094243;28;20042;-72
2023/10/09 05:58:42;;;;;;;10.77;6.63;;;22.90;99.90;;;;;;5093203;28;20451;-70
2023/10/09 06:05:41;;;;;;;10.82;6.90;;;23.10;99.90;;;;;;5087179;28;20078;-72
2023/10/09 06:08:12;;;;;;;15.98;6.70;;;23.70;99.90;;;;;;5093961;28;20159;-70
2023/10/09 06:10:41;;;;;;;13.40;6.07;;;24.50;99.90;;;;;;5074151;28;20028;-71
2023/10/09 06:13:26;;;;;;;9.68;6.30;;;25.10;99.90;;;;;;5092801;28;20490;-70
2023/10/09 06:16:09;;;;;;;9.33;6.10;;;25.60;99.90;;;;;;5075594;28;20024;-72
2023/10/09 06:18:41;;;;;;;10.32;5.75;;;26.10;99.90;;;;;;5093630;28;20035;-71
2023/10/09 06:24:41;;;;;;;10.25;5.93;;;26.50;99.90;;;;;;5093374;28;20654;-73
2023/10/09 06:26:32;;;;;;;9.35;5.40;;;26.40;99.90;;;;;;5075579;28;20476;-72
2023/10/09 06:29:14;;;;;;;11.52;6.30;;;26.30;99.90;;;;;;5093461;28;20472;-73
2023/10/09 06:31:59;;;;;;;12.57;5.82;;;26.30;99.90;;;;;;5093223;28;20565;-72
2023/10/09 06:34:32;;;;;;;8.88;5.65;;;26.00;99.90;;;;;;5093502;28;20101;-71
2023/10/09 06:37:34;;;;;;;11.02;5.75;;;26.20;99.90;;;;;;5093133;28;20028;-71
2023/10/09 06:45:21;;;;;;;9.05;5.10;;;26.00;99.90;;;;;;5049600;28;20029;-72
2023/10/09 06:48:40;;;;;;;10.43;5.90;;;26.10;99.90;;;;;;5050717;28;20542;-72
2023/10/09 06:53:20;;;;;;;9.98;4.82;;;27.30;99.90;;;;;;5050516;28;20063;-71
2023/10/09 06:55:50;;;;;;;13.70;5.25;;;26.90;99.90;;;;;;5050499;28;20607;-72
2023/10/09 06:58:23;;;;;;;8.75;5.50;;;27.20;99.90;;;;;;5049765;28;20028;-72
2023/10/09 07:03:34;;;;;;;;;;;27.90;99.90;;;;;;5050434;28;20132;-71
2023/10/09 07:06:47;;;;;;;9.50;5.20;;;28.20;99.90;;;;;;5033283;28;20375;-73
2023/10/09 07:17:44;;;;;;;7.40;4.93;;;29.10;99.90;;;;;;5050299;28;20112;-71
2023/10/09 07:22:56;;;;;;;9.75;4.72;;;29.20;99.90;;;;;;5069444;28;20036;-71
2023/10/09 07:25:40;;;;;;;9.93;4.70;;;28.90;99.90;;;;;;5071956;28;20024;-72
2023/10/09 07:28:36;;;;;;;8.57;5.28;;;28.50;99.90;;;;;;5063529;28;20436;-71
2023/10/09 07:31:04;;;;;;;7.40;4.82;;;27.60;99.90;;;;;;5092606;28;20028;-71
2023/10/09 07:33:34;;;;;;;9.55;4.82;;;27.60;99.90;;;;;;5073655;28;20076;-71
2023/10/09 07:36:07;;;;;;;9.30;4.82;;;27.30;99.90;;;;;;5091794;28;20398;-72
2023/10/09 07:38:36;;;;;;;8.88;4.90;;;27.40;99.90;;;;;;5073001;28;20048;-71
2023/10/09 07:43:39;;;;;;;12.55;4.78;;;27.60;99.90;;;;;;5073974;28;20044;-72
2023/10/09 07:48:56;;;;;;;13.20;4.90;;;27.00;99.90;;;;;;5091995;28;20043;-74
2023/10/09 07:51:30;;;;;;;8.30;5.35;;;27.00;99.90;;;;;;5090843;28;20046;-71
2023/10/09 07:54:06;;;;;;;9.10;4.82;;;27.40;99.90;;;;;;5090658;28;20047;-72
2023/10/09 07:56:45;;;;;;;10.07;4.85;;;27.50;99.90;;;;;;5090854;28;20028;-72
2023/10/09 07:59:18;;;;;;;12.70;5.28;;;27.40;99.90;;;;;;5090818;28;20131;-72
2023/10/09 08:01:52;;;;;;;7.88;4.80;;;27.20;99.90;;;;;;5091041;28;20028;-68
2023/10/09 08:04:37;;;;;;;8.80;4.70;;;27.00;99.90;;;;;;5091111;28;20028;-73
2023/10/09 08:07:07;;;;;;;12.48;4.95;;;27.30;99.90;;;;;;5091763;28;20107;-71
2023/10/09 08:09:46;;;;;;;10.68;4.78;;;27.30;99.90;;;;;;5091123;28;20078;-71
2023/10/09 08:12:13;;;;;;;10.38;4.25;;;27.60;99.90;;;;;;5090351;28;20036;-70
2023/10/09 08:14:48;;;;;;;13.63;5.25;;;27.60;99.90;;;;;;5090707;28;20472;-71
2023/10/09 08:17:21;;;;;;;9.68;4.63;;;27.60;99.90;;;;;;5091365;28;20070;-71
2023/10/09 08:20:17;;;;;;;8.25;4.40;;;27.80;99.90;;;;;;5091380;28;20028;-71
2023/10/09 08:22:44;;;;;;;12.82;4.70;;;27.60;99.90;;;;;;5009266;28;20191;-71
2023/10/09 08:36:07;;;;;;;13.05;4.68;;;28.20;99.90;;;;;;5009003;28;20174;-71
2023/10/09 08:38:34;;;;;;;8.88;4.72;;;28.00;99.90;;;;;;5008963;28;20192;-72
2023/10/09 08:41:17;;;;;;;15.50;4.65;;;27.70;99.90;;;;;;5009200;28;20053;-73
2023/10/09 08:43:53;;;;;;;11.85;4.70;;;27.80;99.90;;;;;;5008970;28;20553;-71
2023/10/09 08:46:27;;;;;;;9.88;4.50;;;28.00;99.90;;;;;;5009054;28;20070;-71
2023/10/09 08:48:59;;;;;;;11.60;4.75;;;28.00;99.90;;;;;;4991746;28;20332;-72
2023/10/09 08:51:27;;;;;;;9.25;4.63;;;28.10;99.90;;;;;;5008521;28;20133;-72
2023/10/09 08:53:54;;;;;;;9.50;4.38;;;28.10;99.90;;;;;;5009093;28;20049;-72
2023/10/09 08:56:24;;;;;;;13.38;4.60;;;28.40;99.90;;;;;;4991938;28;20547;-71
2023/10/09 08:58:57;;;;;;;10.77;4.43;;;28.40;99.90;;;;;;5018204;28;20036;-72
2023/10/09 09:01:24;;;;;;;9.52;4.40;;;28.20;99.90;;;;;;5072216;28;20381;-72
2023/10/09 09:03:55;;;;;;;10.25;4.88;;;28.40;99.90;;;;;;5090474;28;20020;-71
2023/10/09 09:06:23;;;;;;;10.90;5.63;;;28.70;99.90;;;;;;5090644;28;20020;-72
2023/10/09 09:09:04;;;;;;;8.88;4.93;;;28.80;99.90;;;;;;5091840;28;20099;-72
2023/10/09 09:11:30;;;;;;;11.68;4.97;;;28.80;99.90;;;;;;5075344;28;20039;-72
2023/10/09 09:14:06;;;;;;;12.55;5.50;;;29.00;99.90;;;;;;5076167;28;20016;-73
2023/10/09 09:16:34;;;;;;;14.57;4.93;;;29.00;99.90;;;;;;5094273;28;20157;-72
2023/10/09 09:21:43;;;;;;;9.65;4.88;;;29.20;99.90;;;;;;5093879;28;20043;-73
2023/10/09 09:26:59;;;;;;;8.30;4.72;;;29.20;99.90;;;;;;5093807;28;20031;-72
2023/10/09 09:29:41;;;;;;;17.45;4.95;;;29.20;99.90;;;;;;5093786;28;20028;-71
2023/10/09 09:32:19;;;;;;;11.00;5.05;;;29.50;99.90;;;;;;5075481;28;20043;-72
2023/10/09 09:35:01;;;;;;;11.75;4.68;;;29.40;99.90;;;;;;5093702;28;20468;-72
2023/10/09 09:37:28;;;;;;;10.57;4.35;;;29.70;99.90;;;;;;5093561;28;20044;-71
2023/10/09 09:40:00;;;;;;;16.05;5.22;;;30.00;99.90;;;;;;5075443;28;20020;-72
2023/10/09 09:42:31;;;;;;;12.38;4.65;;;30.00;99.90;;;;;;5075280;28;20062;-71
2023/10/09 09:45:01;;;;;;;9.02;4.68;;;30.20;99.90;;;;;;5093621;28;20016;-72
2023/10/09 09:47:27;;;;;;;11.25;4.72;;;30.10;99.90;;;;;;5093629;28;20036;-73
2023/10/09 09:49:59;;;;;;;;;;;30.00;99.90;;;;;;5093844;28;20036;-71
2023/10/09 09:52:40;;;;;;;12.10;6.38;;;29.90;99.90;;;;;;5093262;28;19912;-72
2023/10/09 09:55:17;;;;;;;22.85;10.13;;;29.90;99.90;;;;;;5093610;28;20027;-71
2023/10/09 09:57:51;;;;;;;16.75;10.13;;;29.90;99.90;;;;;;5074744;28;20429;-71
2023/10/09 10:00:30;;;;;;;47.58;22.05;;;29.50;99.90;;;;;;5093188;28;20013;-72
2023/10/09 10:03:07;;;;;;;41.95;19.17;;;29.60;99.90;;;;;;5093350;28;20034;-72
2023/10/09 10:05:34;;;;;;;21.38;9.82;;;29.90;99.90;;;;;;5093565;28;20020;-71
2023/10/09 10:08:03;;;;;;;15.57;6.57;;;30.00;99.90;;;;;;5093516;28;20024;-71
2023/10/09 10:10:38;;;;;;;14.23;5.60;;;29.90;99.90;;;;;;5093072;28;20382;-71
2023/10/09 10:13:05;;;;;;;12.65;5.85;;;29.80;99.90;;;;;;5092656;28;20043;-71
2023/10/09 10:16:02;;;;;;;13.68;5.80;;;29.70;99.90;;;;;;5093051;28;20324;-70
2023/10/09 10:18:35;;;;;;;9.60;5.10;;;29.70;99.90;;;;;;5092710;28;20063;-71
2023/10/09 10:21:18;;;;;;;8.95;5.35;;;29.90;99.90;;;;;;5090825;28;20024;-70
2023/10/09 10:23:47;;;;;;;9.63;4.43;;;30.00;99.90;;;;;;5092641;28;20015;-73
2023/10/09 10:26:26;;;;;;;12.68;7.07;;;30.10;99.90;;;;;;5092739;28;20066;-71
2023/10/09 10:29:26;;;;;;;12.35;5.38;;;30.10;99.90;;;;;;5092636;28;20069;-72
2023/10/09 10:31:56;;;;;;;7.10;4.55;;;30.10;99.90;;;;;;5074381;28;20028;-71
2023/10/09 10:34:26;;;;;;;13.05;4.75;;;30.20;99.90;;;;;;5074600;28;20388;-71
2023/10/09 10:37:06;;;;;;;12.90;5.50;;;30.40;99.90;;;;;;5092872;28;20028;-72
2023/10/09 10:39:44;;;;;;;10.40;4.47;;;30.40;99.90;;;;;;5092809;28;20113;-71
2023/10/09 10:42:33;;;;;;;8.25;4.22;;;30.30;99.90;;;;;;5093018;28;20043;-70
2023/10/09 10:44:56;;;;;;;14.85;4.82;;;30.10;99.90;;;;;;5092163;28;20024;-72
2023/10/09 10:47:36;;;;;;;11.60;4.75;;;30.10;99.90;;;;;;5074730;28;20046;-73
2023/10/09 10:52:57;;;;;;;7.82;5.15;;;30.30;99.90;;;;;;5093253;28;20097;-72
2023/10/09 10:58:00;;;;;;;8.40;4.93;;;30.20;99.90;;;;;;5092407;28;20116;-71
2023/10/09 11:03:29;;;;;;;12.88;5.10;;;30.40;99.90;;;;;;5092136;28;20472;-72
2023/10/09 11:06:12;;;;;;;10.70;4.90;;;30.30;99.90;;;;;;5092389;28;20435;-72
2023/10/09 11:08:54;;;;;;;11.68;5.03;;;30.20;99.90;;;;;;5092886;28;20103;-71
2023/10/09 11:11:21;;;;;;;10.40;5.45;;;30.00;99.90;;;;;;5092652;28;20163;-71
2023/10/09 11:14:05;;;;;;;11.25;5.30;;;30.00;99.90;;;;;;5092236;28;20085;-72
2023/10/09 11:19:12;;;;;;;8.82;5.10;;;30.30;99.90;;;;;;5092491;28;20424;-72
2023/10/09 11:21:42;;;;;;;11.25;5.10;;;30.20;99.90;;;;;;5092636;28;20024;-71
2023/10/09 11:24:24;;;;;;;12.55;7.72;;;30.30;99.90;;;;;;5092661;28;20065;-71
2023/10/09 11:26:55;;;;;;;24.50;13.80;;;30.20;99.90;;;;;;5092746;28;20488;-71
2023/10/09 11:32:05;;;;;;;10.82;6.55;;;30.40;99.90;;;;;;5091688;28;20047;-72
2023/10/09 11:34:34;;;;;;;11.45;7.40;;;30.60;99.90;;;;;;5091992;28;20082;-72
2023/10/09 11:37:03;;;;;;;12.85;7.07;;;30.70;99.90;;;;;;5092004;28;20432;-73
2023/10/09 11:39:34;;;;;;;11.90;5.38;;;30.60;99.90;;;;;;5073798;28;20028;-72
2023/10/09 11:42:05;;;;;;;14.85;5.68;;;30.80;99.90;;;;;;5073570;28;20024;-72
2023/10/09 11:44:45;;;;;;;12.20;6.60;;;30.70;99.90;;;;;;5073523;28;20020;-71
2023/10/09 11:52:35;;;;;;;11.10;5.10;;;31.10;99.90;;;;;;5092522;28;20036;-72
2023/10/09 11:55:06;;;;;;;9.73;5.05;;;31.20;99.90;;;;;;5092519;28;20473;-73
2023/10/09 11:57:33;;;;;;;8.82;4.60;;;31.10;99.90;;;;;;5092180;28;20553;-72
2023/10/09 12:00:12;;;;;;;11.20;4.32;;;31.20;99.90;;;;;;5074039;28;20031;-73
2023/10/09 12:02:43;;;;;;;14.90;4.95;;;31.20;99.90;;;;;;5092351;28;20027;-72
2023/10/09 12:05:16;;;;;;;10.02;4.25;;;31.10;99.90;;;;;;5092568;28;20035;-73
2023/10/09 12:07:45;;;;;;;11.35;4.53;;;30.90;99.90;;;;;;5092305;28;20047;-71
2023/10/09 12:10:13;;;;;;;14.57;4.22;;;30.90;99.90;;;;;;5074160;28;20110;-72
2023/10/09 12:12:41;;;;;;;11.32;4.30;;;31.10;99.90;;;;;;5092387;28;20039;-72
2023/10/09 12:15:17;;;;;;;12.20;4.68;;;31.10;99.90;;;;;;5092703;28;20064;-72
2023/10/09 12:17:47;;;;;;;9.07;4.30;;;30.90;99.90;;;;;;5092940;28;20551;-70
2023/10/09 12:20:32;;;;;;;11.63;4.53;;;30.70;99.90;;;;;;5092870;28;20028;-70
2023/10/09 12:23:05;;;;;;;6.88;3.58;;;31.10;99.60;;;;;;5092906;28;20111;-71
2023/10/09 12:25:33;;;;;;;9.93;4.00;;;31.30;98.60;;;;;;5092972;28;20417;-72
2023/10/09 12:28:01;;;;;;;10.60;3.58;;;31.50;98.10;;;;;;5092516;28;20020;-73
2023/10/09 12:30:31;;;;;;;10.85;4.00;;;31.70;97.80;;;;;;5092802;28;20024;-71
2023/10/09 12:32:58;;;;;;;12.90;4.55;;;31.50;97.80;;;;;;5092719;28;20040;-72
2023/10/09 12:35:25;;;;;;;11.38;4.57;;;31.50;97.50;;;;;;5092672;28;20024;-72
2023/10/09 12:37:54;;;;;;;11.60;4.60;;;31.30;97.70;;;;;;5092994;28;20059;-72
2023/10/09 12:40:30;;;;;;;10.77;4.10;;;31.20;97.80;;;;;;5093008;28;20024;-71
2023/10/09 12:43:00;;;;;;;11.05;4.40;;;31.10;96.70;;;;;;5092798;28;20157;-73
2023/10/09 12:45:32;;;;;;;10.90;4.45;;;31.10;98.00;;;;;;5096542;28;20031;-73
2023/10/09 12:48:08;;;;;;;10.38;4.00;;;31.30;97.70;;;;;;5096718;28;20024;-72
2023/10/09 12:50:41;;;;;;;9.20;3.80;;;31.60;96.30;;;;;;5096931;28;20028;-72
2023/10/09 12:53:08;;;;;;;13.75;4.22;;;31.50;96.60;;;;;;5096910;28;20111;-72
2023/10/09 12:55:41;;;;;;;9.55;3.80;;;31.40;97.00;;;;;;5096146;28;20057;-72
2023/10/09 12:58:09;;;;;;;11.07;3.95;;;31.40;96.50;;;;;;5095628;28;20028;-72
2023/10/09 13:00:44;;;;;;;11.90;3.33;;;31.60;96.00;;;;;;5077657;28;20047;-71
2023/10/09 13:03:19;;;;;;;9.32;3.65;;;31.60;95.00;;;;;;5079430;28;20487;-72
2023/10/09 13:05:56;;;;;;;10.90;4.00;;;31.70;96.00;;;;;;5096549;28;20028;-72
2023/10/09 13:08:34;;;;;;;10.70;3.78;;;31.40;96.50;;;;;;5077966;28;20028;-71
2023/10/09 13:11:10;;;;;;;10.45;3.88;;;31.40;97.80;;;;;;5096307;28;20108;-71
2023/10/09 13:13:41;;;;;;;16.83;4.40;;;31.50;98.40;;;;;;5077701;28;20063;-71
2023/10/09 13:16:14;;;;;;;8.57;4.18;;;31.60;99.50;;;;;;5095876;28;20554;-71
2023/10/09 13:18:49;;;;;;;7.65;4.35;;;31.60;99.90;;;;;;5096051;28;20020;-72
2023/10/09 13:21:20;;;;;;;11.43;4.15;;;31.40;99.90;;;;;;5095815;28;20046;-71
2023/10/09 13:23:47;;;;;;;10.18;4.18;;;31.50;99.90;;;;;;5095968;28;20361;-72
2023/10/09 13:26:29;;;;;;;8.55;4.28;;;31.40;99.90;;;;;;5095962;28;20065;-70
2023/10/09 13:28:57;;;;;;;9.43;4.13;;;31.60;99.90;;;;;;5095759;28;20024;-72
2023/10/09 13:31:27;;;;;;;7.57;3.97;;;31.80;99.90;;;;;;5095675;28;20039;-71
2023/10/09 13:33:55;;;;;;;9.82;3.85;;;31.60;99.70;;;;;;5096033;28;20079;-72
2023/10/09 13:36:34;;;;;;;13.73;4.28;;;31.80;99.40;;;;;;5095755;28;20017;-72
2023/10/09 13:39:19;;;;;;;11.02;3.63;;;31.80;98.80;;;;;;5095636;28;20040;-71
2023/10/09 13:41:46;;;;;;;7.70;3.45;;;31.40;98.60;;;;;;5095644;28;20024;-71
2023/10/09 13:44:13;;;;;;;8.38;3.35;;;31.40;97.60;;;;;;5096051;28;20480;-71
2023/10/09 13:46:43;;;;;;;10.50;3.85;;;31.20;97.00;;;;;;5095475;28;20024;-71
2023/10/09 13:49:13;;;;;;;8.82;4.00;;;31.00;97.10;;;;;;5094759;28;20020;-72
2023/10/09 13:51:44;;;;;;;10.85;3.78;;;30.90;97.40;;;;;;5094996;28;20030;-71
2023/10/09 13:57:10;;;;;;;9.60;3.40;;;30.60;96.70;;;;;;5052033;28;20521;-71
2023/10/09 13:59:42;;;;;;;9.82;3.75;;;30.50;96.80;;;;;;5052206;28;20577;-70
2023/10/09 14:02:17;;;;;;;9.18;3.90;;;30.50;97.10;;;;;;5052227;28;20061;-70
2023/10/09 14:04:43;;;;;;;10.35;3.85;;;30.60;97.70;;;;;;5052659;28;20028;-70
2023/10/09 14:07:10;;;;;;;7.85;3.65;;;30.90;97.40;;;;;;5052590;28;20116;-71
2023/10/09 14:09:44;;;;;;;10.77;4.07;;;31.10;97.00;;;;;;5052472;28;20099;-71
2023/10/09 14:12:14;;;;;;;11.68;4.00;;;31.10;96.90;;;;;;5052171;28;20045;-70
2023/10/09 14:14:53;;;;;;;6.43;3.47;;;30.80;97.50;;;;;;5035775;28;20029;-71
2023/10/09 14:17:23;;;;;;;7.93;4.25;;;30.50;97.60;;;;;;5052727;28;20036;-70
2023/10/09 14:19:53;;;;;;;13.65;7.55;;;30.60;97.10;;;;;;5052499;28;20041;-70
2023/10/09 14:22:24;;;;;;;37.92;23.65;;;30.70;96.70;;;;;;5052222;28;20097;-70
2023/10/09 14:24:57;;;;;;;17.95;10.50;;;30.50;96.80;;;;;;5052497;28;20029;-71
2023/10/09 14:27:26;;;;;;;12.85;5.25;;;30.00;96.70;;;;;;5035060;28;20041;-70
2023/10/09 14:29:59;;;;;;;13.65;5.95;;;29.80;96.70;;;;;;5052280;28;20111;-71
2023/10/09 14:32:28;;;;;;;14.70;6.68;;;29.90;96.70;;;;;;5052959;28;20082;-70
2023/10/09 14:35:00;;;;;;;25.98;15.93;;;30.10;96.70;;;;;;5073932;28;20572;-70
2023/10/09 14:37:27;;;;;;;18.85;11.38;;;30.10;96.20;;;;;;5068929;28;20079;-70
2023/10/09 14:39:55;;;;;;;14.45;6.78;;;30.10;96.70;;;;;;5053997;28;20025;-70
2023/10/09 14:42:24;;;;;;;50.08;5.68;;;29.80;96.80;;;;;;5053627;28;20032;-70
2023/10/09 14:44:50;;;;;;;13.98;4.47;;;29.90;97.10;;;;;;5053762;28;20013;-71
2023/10/09 14:47:18;;;;;;;19.52;4.13;;;29.60;97.40;;;;;;5054150;28;20115;-71
2023/10/09 14:49:48;;;;;;;12.18;4.45;;;29.60;97.70;;;;;;5053289;28;20108;-70
2023/10/09 14:52:19;;;;;;;11.50;3.92;;;29.70;97.60;;;;;;5053136;28;20067;-70
2023/10/09 14:54:47;;;;;;;10.95;4.28;;;29.80;97.80;;;;;;5053591;28;20103;-71
2023/10/09 14:57:13;;;;;;;11.85;4.18;;;29.90;98.20;;;;;;5055117;28;20151;-70
2023/10/09 14:59:39;;;;;;;9.52;4.13;;;29.90;98.40;;;;;;5071357;28;20369;-71
2023/10/09 15:02:07;;;;;;;10.75;4.05;;;29.70;99.10;;;;;;5071328;28;20392;-71
2023/10/09 15:04:36;;;;;;;13.15;4.60;;;29.40;99.60;;;;;;5072808;28;20443;-71
2023/10/09 15:07:06;;;;;;;14.25;4.82;;;29.40;99.90;;;;;;5071292;28;20024;-71
2023/10/09 15:09:36;;;;;;;14.10;4.80;;;29.40;99.90;;;;;;5071929;28;20059;-71
2023/10/09 15:12:02;;;;;;;13.60;5.07;;;29.20;99.90;;;;;;5071594;28;20032;-71
2023/10/09 15:14:28;;;;;;;9.75;4.75;;;29.20;99.90;;;;;;5072307;28;20021;-71